createdAt,value
2018-10-18T00:01:19.312Z,21.48
2018-10-18T00:03:48.711Z,20.72
2018-10-18T00:06:17.577Z,22.40
2018-10-18T00:08:46.173Z,27.10
2018-10-18T00:11:14.910Z,24.40
2018-10-18T00:13:43.677Z,20.97
2018-10-18T00:16:12.389Z,23.90
2018-10-18T00:18:41.171Z,22.45
2018-10-18T00:21:09.841Z,22.40
2018-10-18T00:23:38.558Z,20.72
2018-10-18T00:26:07.384Z,28.75
2018-10-18T00:28:36.146Z,21.65
2018-10-18T00:31:04.886Z,30.20
2018-10-18T00:33:33.615Z,27.65
2018-10-18T00:36:02.375Z,24.27
2018-10-18T00:38:31.221Z,31.45
2018-10-18T00:41:00.017Z,27.35
2018-10-18T00:43:28.757Z,21.75
2018-10-18T00:45:57.545Z,23.40
2018-10-18T00:48:26.254Z,28.95
2018-10-18T00:50:54.978Z,24.43
2018-10-18T00:53:23.745Z,27.77
2018-10-18T00:55:52.506Z,21.30
2018-10-18T00:58:21.280Z,26.68
2018-10-18T01:00:50.026Z,25.02
2018-10-18T01:03:18.745Z,30.35
2018-10-18T01:05:47.525Z,55.83
2018-10-18T01:08:16.324Z,26.02
2018-10-18T01:10:45.093Z,22.60
2018-10-18T01:13:13.913Z,21.87
2018-10-18T01:15:47.359Z,23.75
2018-10-18T01:18:19.863Z,29.52
2018-10-18T01:20:52.173Z,26.25
2018-10-18T01:23:24.285Z,22.93
2018-10-18T01:25:56.479Z,28.77
2018-10-18T01:28:30.960Z,22.10
2018-10-18T01:31:04.157Z,23.47
2018-10-18T01:33:38.553Z,25.15
2018-10-18T01:36:11.820Z,22.22
2018-10-18T01:38:46.225Z,25.08
2018-10-18T01:41:23.586Z,24.75
2018-10-18T01:43:57.858Z,22.70
2018-10-18T01:46:30.908Z,25.12
2018-10-18T01:49:04.937Z,30.55
2018-10-18T01:51:39.237Z,27.00
2018-10-18T01:54:14.553Z,32.63
2018-10-18T01:56:47.860Z,37.55
2018-10-18T01:59:23.498Z,30.45
2018-10-18T02:01:57.739Z,28.12
2018-10-18T02:04:32.047Z,28.10
2018-10-18T02:07:05.514Z,30.20
2018-10-18T02:09:40.187Z,27.45
2018-10-18T02:12:14.383Z,26.00
2018-10-18T02:14:47.277Z,29.15
2018-10-18T02:17:20.787Z,25.75
2018-10-18T02:19:54.324Z,32.45
2018-10-18T02:22:28.058Z,25.95
2018-10-18T02:25:00.641Z,24.50
2018-10-18T02:27:34.613Z,29.80
2018-10-18T02:30:06.698Z,27.25
2018-10-18T02:32:41.544Z,21.33
2018-10-18T02:35:14.958Z,28.83
2018-10-18T02:37:48.881Z,28.32
2018-10-18T02:40:23.830Z,26.55
2018-10-18T02:42:58.820Z,27.75
2018-10-18T02:45:32.633Z,26.55
2018-10-18T02:48:07.599Z,35.20
2018-10-18T02:50:43.910Z,30.02
2018-10-18T02:53:16.831Z,29.37
2018-10-18T02:55:50.931Z,40.58
2018-10-18T02:58:26.331Z,28.98
2018-10-18T03:01:01.109Z,35.95
2018-10-18T03:03:35.171Z,32.30
2018-10-18T03:06:10.515Z,27.77
2018-10-18T03:08:45.710Z,25.15
2018-10-18T03:11:21.580Z,29.75
2018-10-18T03:13:56.019Z,25.75
2018-10-18T03:16:29.357Z,32.90
2018-10-18T03:19:14.519Z,27.80
2018-10-18T03:21:48.280Z,33.18
2018-10-18T03:24:21.237Z,27.70
2018-10-18T03:26:54.006Z,33.90
2018-10-18T03:29:27.126Z,27.55
2018-10-18T03:32:01.254Z,26.12
2018-10-18T03:34:34.412Z,30.05
2018-10-18T03:37:08.339Z,29.67
2018-10-18T03:39:46.214Z,38.55
2018-10-18T03:42:20.121Z,29.30
2018-10-18T03:44:54.455Z,34.10
2018-10-18T03:47:29.420Z,27.80
2018-10-18T03:50:02.778Z,36.38
2018-10-18T03:52:40.544Z,30.32
2018-10-18T03:55:21.571Z,28.05
2018-10-18T03:57:54.768Z,33.42
2018-10-18T04:00:28.709Z,27.95
2018-10-18T04:03:02.625Z,33.00
2018-10-18T04:05:37.152Z,44.35
2018-10-18T04:08:11.203Z,31.87
2018-10-18T04:10:44.472Z,33.23
2018-10-18T04:13:17.920Z,41.15
2018-10-18T04:15:53.678Z,32.83
2018-10-18T04:18:28.929Z,29.87
2018-10-18T04:21:04.152Z,27.17
2018-10-18T04:23:38.863Z,38.40
2018-10-18T04:26:14.308Z,38.20
2018-10-18T04:28:47.452Z,26.90
2018-10-18T04:31:26.073Z,26.80
2018-10-18T04:33:59.168Z,31.75
2018-10-18T04:36:43.325Z,35.55
2018-10-18T04:39:16.456Z,33.40
2018-10-18T04:41:50.572Z,28.57
2018-10-18T04:44:30.307Z,30.75
2018-10-18T04:47:05.447Z,32.35
2018-10-18T04:49:44.384Z,24.50
2018-10-18T04:52:21.857Z,29.90
2018-10-18T04:54:58.230Z,28.32
2018-10-18T04:57:31.387Z,27.85
2018-10-18T05:00:14.929Z,44.25
2018-10-18T05:02:50.683Z,34.98
2018-10-18T05:05:34.863Z,37.15
2018-10-18T05:08:10.000Z,31.77
2018-10-18T05:10:43.951Z,30.85
2018-10-18T05:13:17.576Z,31.35
2018-10-18T05:15:52.921Z,34.27
2018-10-18T05:18:26.553Z,44.23
2018-10-18T05:20:59.471Z,37.40
2018-10-18T05:23:32.853Z,29.60
2018-10-18T05:26:11.679Z,41.92
2018-10-18T05:28:44.997Z,39.33
2018-10-18T05:31:28.839Z,28.00
2018-10-18T05:34:03.343Z,34.45
2018-10-18T05:36:38.959Z,37.78
2018-10-18T05:39:13.997Z,35.92
2018-10-18T05:41:48.812Z,34.98
2018-10-18T05:44:22.549Z,37.75
2018-10-18T05:46:53.806Z,33.78
2018-10-18T05:49:25.863Z,38.85
2018-10-18T05:51:57.084Z,37.90
2018-10-18T05:54:28.814Z,42.03
2018-10-18T05:57:01.261Z,60.50
2018-10-18T05:59:34.389Z,47.13
2018-10-18T06:02:08.399Z,58.98
2018-10-18T06:04:49.092Z,60.45
2018-10-18T06:07:22.451Z,46.68
2018-10-18T06:09:57.514Z,45.78
2018-10-18T06:12:34.305Z,39.80
2018-10-18T06:15:07.790Z,56.85
2018-10-18T06:17:44.446Z,37.48
2018-10-18T06:20:16.967Z,49.05
2018-10-18T06:22:49.372Z,41.83
2018-10-18T06:25:22.667Z,38.42
2018-10-18T06:27:59.196Z,50.75
2018-10-18T06:30:33.169Z,37.35
2018-10-18T06:33:04.463Z,51.60
2018-10-18T06:35:35.607Z,49.27
2018-10-18T06:38:10.885Z,44.33
2018-10-18T06:40:42.710Z,47.40
2018-10-18T06:43:14.114Z,45.23
2018-10-18T06:45:46.779Z,45.43
2018-10-18T06:48:17.743Z,53.50
2018-10-18T06:50:48.302Z,51.90
2018-10-18T06:53:18.919Z,61.18
2018-10-18T06:55:51.442Z,60.88
2018-10-18T06:58:25.787Z,47.17
2018-10-18T07:00:56.502Z,45.78
2018-10-18T07:03:29.014Z,47.25
2018-10-18T07:06:02.015Z,49.98
2018-10-18T07:08:35.776Z,46.08
2018-10-18T07:11:16.408Z,55.30
2018-10-18T07:13:50.838Z,55.70
2018-10-18T07:16:22.365Z,55.00
2018-10-18T07:18:54.768Z,47.23
2018-10-18T07:21:27.226Z,66.47
2018-10-18T07:23:58.808Z,37.03
2018-10-18T07:26:29.419Z,60.48
2018-10-18T07:29:01.427Z,50.35
2018-10-18T07:31:31.704Z,76.33
2018-10-18T07:34:03.461Z,74.85
2018-10-18T07:36:34.106Z,53.40
2018-10-18T07:39:05.278Z,58.15
2018-10-18T07:41:37.906Z,51.50
2018-10-18T07:44:10.833Z,44.42
2018-10-18T07:46:45.994Z,46.90
2018-10-18T07:49:17.608Z,65.95
2018-10-18T07:51:50.650Z,83.50
2018-10-18T07:54:22.215Z,60.83
2018-10-18T07:56:55.789Z,53.00
2018-10-18T07:59:29.099Z,70.37
2018-10-18T08:02:01.805Z,57.33
2018-10-18T08:04:34.626Z,75.52
2018-10-18T08:07:14.542Z,51.85
2018-10-18T08:09:47.047Z,108.70
2018-10-18T08:12:18.559Z,63.23
2018-10-18T08:14:51.972Z,70.03
2018-10-18T08:17:25.051Z,60.00
2018-10-18T08:19:58.883Z,54.20
2018-10-18T08:22:32.362Z,64.55
2018-10-18T08:25:05.075Z,58.98
2018-10-18T08:27:39.327Z,54.27
2018-10-18T08:30:14.611Z,51.55
2018-10-18T08:32:47.469Z,53.30
2018-10-18T08:35:21.444Z,58.03
2018-10-18T08:37:55.213Z,75.57
2018-10-18T08:40:29.098Z,59.10
2018-10-18T08:43:02.991Z,55.50
2018-10-18T08:45:33.711Z,52.13
2018-10-18T08:48:06.248Z,53.57
2018-10-18T08:50:37.647Z,56.00
2018-10-18T08:53:09.039Z,50.87
2018-10-18T08:55:41.882Z,59.30
2018-10-18T08:58:13.378Z,56.27
2018-10-18T09:00:45.198Z,52.33
2018-10-18T09:03:19.987Z,56.20
2018-10-18T09:05:52.275Z,52.63
2018-10-18T09:08:24.840Z,46.03
2018-10-18T09:10:56.005Z,52.13
2018-10-18T09:13:30.052Z,49.13
2018-10-18T09:16:01.471Z,49.30
2018-10-18T09:18:32.663Z,49.50
2018-10-18T09:21:03.916Z,47.70
2018-10-18T09:23:38.201Z,56.33
2018-10-18T09:26:10.830Z,48.33
2018-10-18T09:28:44.011Z,42.63
2018-10-18T09:31:15.997Z,60.00
2018-10-18T09:33:48.208Z,43.50
2018-10-18T09:36:19.531Z,43.77
2018-10-18T09:38:52.050Z,46.80
2018-10-18T09:41:23.692Z,42.73
2018-10-18T09:43:59.789Z,45.60
2018-10-18T09:46:31.839Z,41.40
2018-10-18T09:49:05.175Z,48.80
2018-10-18T09:51:36.087Z,45.97
2018-10-18T09:54:07.412Z,48.43
2018-10-18T09:56:38.471Z,53.20
2018-10-18T09:59:10.969Z,38.97
2018-10-18T10:01:47.340Z,42.27
2018-10-18T10:04:18.760Z,40.60
2018-10-18T10:06:51.123Z,36.20
2018-10-18T10:09:22.204Z,41.43
2018-10-18T10:11:54.765Z,34.60
2018-10-18T10:14:26.032Z,34.33
2018-10-18T10:16:58.065Z,40.37
2018-10-18T10:19:30.007Z,36.17
2018-10-18T10:22:02.850Z,44.53
2018-10-18T10:24:33.983Z,36.37
2018-10-18T10:27:06.113Z,35.70
2018-10-18T10:29:39.046Z,36.27
2018-10-18T10:32:10.904Z,37.17
2018-10-18T10:34:42.649Z,39.27
2018-10-18T10:37:14.545Z,36.33
2018-10-18T10:39:45.790Z,39.33
2018-10-18T10:42:17.371Z,29.93
2018-10-18T10:44:48.018Z,34.57
2018-10-18T10:47:20.245Z,35.60
2018-10-18T10:49:51.743Z,35.33
2018-10-18T10:52:23.349Z,45.63
2018-10-18T10:54:56.589Z,30.00
2018-10-18T10:57:26.942Z,30.67
2018-10-18T10:59:58.197Z,28.33
2018-10-18T11:02:28.578Z,35.73
2018-10-18T11:04:59.252Z,39.23
2018-10-18T11:07:30.399Z,27.27
2018-10-18T11:10:00.931Z,30.90
2018-10-18T11:12:32.123Z,38.40
2018-10-18T11:15:02.776Z,32.87
2018-10-18T11:17:35.054Z,28.43
2018-10-18T11:20:06.230Z,35.90
2018-10-18T11:22:36.876Z,25.70
2018-10-18T11:25:07.756Z,30.50
2018-10-18T11:27:38.256Z,26.77
2018-10-18T11:30:09.749Z,26.53
2018-10-18T11:32:40.019Z,26.87
2018-10-18T11:35:10.508Z,30.70
2018-10-18T11:37:42.376Z,29.37
2018-10-18T11:40:35.778Z,28.33
2018-10-18T11:43:08.882Z,49.13
2018-10-18T11:45:41.679Z,28.30
2018-10-18T11:48:14.794Z,31.47
2018-10-18T11:50:47.605Z,27.80
2018-10-18T11:53:19.758Z,29.03
2018-10-18T11:55:51.348Z,29.40
2018-10-18T11:58:23.867Z,40.87
2018-10-18T12:00:57.059Z,27.53
2018-10-18T12:03:29.312Z,27.80
2018-10-18T12:06:02.638Z,30.80
2018-10-18T12:08:35.098Z,26.97
2018-10-18T12:11:06.936Z,25.03
2018-10-18T12:13:39.283Z,30.53
2018-10-18T12:16:11.929Z,25.00
2018-10-18T12:18:43.892Z,29.50
2018-10-18T12:21:15.371Z,24.57
2018-10-18T12:23:48.962Z,26.57
2018-10-18T12:26:19.870Z,31.43
2018-10-18T12:28:52.231Z,22.60
2018-10-18T12:31:25.969Z,29.17
2018-10-18T12:33:58.750Z,34.00
2018-10-18T12:36:31.036Z,26.40
2018-10-18T12:39:02.370Z,30.17
2018-10-18T12:41:35.290Z,21.30
2018-10-18T12:44:08.801Z,43.67
2018-10-18T12:46:40.765Z,30.13
2018-10-18T12:49:12.769Z,28.33
2018-10-18T12:51:44.858Z,19.17
2018-10-18T12:54:17.901Z,21.03
2018-10-18T12:56:50.589Z,21.33
2018-10-18T12:59:22.962Z,23.73
2018-10-18T13:01:55.580Z,19.90
2018-10-18T13:04:29.026Z,29.23
2018-10-18T13:07:02.414Z,24.07
2018-10-18T13:09:35.164Z,24.23
2018-10-18T13:12:07.555Z,25.13
2018-10-18T13:14:39.960Z,25.53
2018-10-18T13:17:11.728Z,24.00
2018-10-18T13:19:44.407Z,31.33
2018-10-18T13:22:16.900Z,20.70
2018-10-18T13:24:49.234Z,15.60
2018-10-18T13:27:22.094Z,21.73
2018-10-18T13:29:54.093Z,25.23
2018-10-18T13:32:26.374Z,23.07
2018-10-18T13:34:58.911Z,20.03
2018-10-18T13:37:31.799Z,16.70
2018-10-18T13:40:03.098Z,16.87
2018-10-18T13:42:35.282Z,21.00
2018-10-18T13:45:09.559Z,20.53
2018-10-18T13:47:41.319Z,20.40
2018-10-18T13:50:13.162Z,15.00
2018-10-18T13:52:44.254Z,16.47
2018-10-18T13:55:15.729Z,17.10
2018-10-18T13:57:47.981Z,17.67
2018-10-18T14:00:27.263Z,21.87
2018-10-18T14:03:00.779Z,18.93
2018-10-18T14:05:34.056Z,18.80
2018-10-18T14:08:07.112Z,25.13
2018-10-18T14:10:39.348Z,12.33
2018-10-18T14:13:11.628Z,18.53
2018-10-18T14:15:43.487Z,18.90
2018-10-18T14:18:14.341Z,27.80
2018-10-18T14:20:49.537Z,17.77
2018-10-18T14:23:20.542Z,17.47
2018-10-18T14:25:52.958Z,19.70
2018-10-18T14:28:25.092Z,17.90
2018-10-18T14:30:57.819Z,22.07
2018-10-18T14:33:29.060Z,20.33
2018-10-18T14:36:01.556Z,15.13
2018-10-18T14:38:33.526Z,15.93
2018-10-18T14:41:04.340Z,20.93
2018-10-18T14:43:36.333Z,14.07
2018-10-18T14:46:07.150Z,19.20
2018-10-18T14:48:39.467Z,12.23
2018-10-18T14:51:10.548Z,16.57
2018-10-18T14:53:41.385Z,11.97
2018-10-18T14:56:12.201Z,11.93
2018-10-18T14:58:43.680Z,13.67
2018-10-18T15:01:15.153Z,29.03
2018-10-18T15:03:45.902Z,19.80
2018-10-18T15:06:18.631Z,11.40
2018-10-18T15:08:50.045Z,15.30
2018-10-18T15:11:22.028Z,16.93
2018-10-18T15:13:53.513Z,15.70
2018-10-18T15:16:24.364Z,14.40
2018-10-18T15:18:55.638Z,14.53
2018-10-18T15:21:27.409Z,15.93
2018-10-18T15:23:58.241Z,14.17
2018-10-18T15:26:30.271Z,20.33
2018-10-18T15:29:01.439Z,15.40
2018-10-18T15:31:36.937Z,15.00
2018-10-18T15:34:09.510Z,12.07
2018-10-18T15:36:39.751Z,16.03
2018-10-18T15:39:15.097Z,29.83
2018-10-18T15:41:45.770Z,15.90
2018-10-18T15:44:16.524Z,19.83
2018-10-18T15:46:49.914Z,23.60
2018-10-18T15:49:21.714Z,18.90
2018-10-18T15:51:54.648Z,21.40
2018-10-18T15:54:26.985Z,22.97
2018-10-18T15:57:15.556Z,21.90
2018-10-18T15:59:48.681Z,26.33
2018-10-18T16:02:26.794Z,20.20
2018-10-18T16:05:00.748Z,17.80
2018-10-18T16:07:34.590Z,14.30
2018-10-18T16:10:07.457Z,16.87
2018-10-18T16:12:42.243Z,17.53
2018-10-18T16:15:14.336Z,21.87
2018-10-18T16:17:47.838Z,18.37
2018-10-18T16:20:20.894Z,20.30
2018-10-18T16:22:54.606Z,20.17
2018-10-18T16:25:27.394Z,20.07
2018-10-18T16:28:01.948Z,16.17
2018-10-18T16:30:36.035Z,19.20
2018-10-18T16:33:10.614Z,23.43
2018-10-18T16:35:43.624Z,18.97
2018-10-18T16:38:16.556Z,50.23
2018-10-18T16:40:50.476Z,31.57
2018-10-18T16:43:23.717Z,24.70
2018-10-18T16:45:56.883Z,28.67
2018-10-18T16:48:30.612Z,24.07
2018-10-18T16:51:03.371Z,21.53
2018-10-18T16:53:37.489Z,22.23
2018-10-18T16:56:20.191Z,22.13
2018-10-18T16:58:54.613Z,26.03
2018-10-18T17:01:27.816Z,23.10
2018-10-18T17:04:00.959Z,20.83
2018-10-18T17:06:33.934Z,28.30
2018-10-18T17:09:07.487Z,32.87
2018-10-18T17:11:41.388Z,28.33
2018-10-18T17:14:14.259Z,28.00
2018-10-18T17:16:48.337Z,21.30
2018-10-18T17:19:21.402Z,25.40
2018-10-18T17:21:55.557Z,37.37
2018-10-18T17:24:29.453Z,24.20
2018-10-18T17:27:02.539Z,32.33
2018-10-18T17:29:37.052Z,29.63
2018-10-18T17:32:12.079Z,32.30
2018-10-18T17:34:45.447Z,23.90
2018-10-18T17:37:18.784Z,28.83
2018-10-18T17:39:52.088Z,21.80
2018-10-18T17:42:25.026Z,23.93
2018-10-18T17:44:58.374Z,26.57
2018-10-18T17:47:33.573Z,29.13
2018-10-18T17:50:07.091Z,29.07
2018-10-18T17:52:41.435Z,34.80
2018-10-18T17:55:14.385Z,32.80
2018-10-18T17:57:46.911Z,27.73
2018-10-18T18:00:19.771Z,32.27
2018-10-18T18:02:53.200Z,29.17
2018-10-18T18:05:27.198Z,28.57
2018-10-18T18:08:00.156Z,27.80
2018-10-18T18:10:33.655Z,26.37
2018-10-18T18:13:07.441Z,30.83
2018-10-18T18:15:41.715Z,31.47
2018-10-18T18:18:17.678Z,26.47
2018-10-18T18:20:51.993Z,24.07
2018-10-18T18:23:25.409Z,26.23
2018-10-18T18:25:58.921Z,33.35
2018-10-18T18:28:32.937Z,26.43
2018-10-18T18:31:07.147Z,28.40
2018-10-18T18:33:40.203Z,30.80
2018-10-18T18:36:13.291Z,30.30
2018-10-18T18:38:45.806Z,29.48
2018-10-18T18:41:20.990Z,32.13
2018-10-18T18:43:54.027Z,28.23
2018-10-18T18:46:28.197Z,31.42
2018-10-18T18:49:01.387Z,35.73
2018-10-18T18:51:34.513Z,32.75
2018-10-18T18:54:08.487Z,27.52
2018-10-18T18:56:51.393Z,36.40
2018-10-18T18:59:24.802Z,38.38
2018-10-18T19:01:57.820Z,37.88
2018-10-18T19:04:30.843Z,41.33
2018-10-18T19:07:03.405Z,45.83
2018-10-18T19:09:36.443Z,45.17
2018-10-18T19:12:09.173Z,43.17
2018-10-18T19:14:41.610Z,40.90
2018-10-18T19:17:14.282Z,45.58
2018-10-18T19:19:46.750Z,50.08
2018-10-18T19:22:21.597Z,44.40
2018-10-18T19:24:54.318Z,43.25
2018-10-18T19:27:26.713Z,51.35
2018-10-18T19:29:59.213Z,48.40
2018-10-18T19:32:32.251Z,62.20
2018-10-18T19:35:05.879Z,50.23
2018-10-18T19:37:38.814Z,50.00
2018-10-18T19:40:13.135Z,61.28
2018-10-18T19:42:45.014Z,48.83
2018-10-18T19:45:17.439Z,61.90
2018-10-18T19:47:49.833Z,54.63
2018-10-18T19:50:22.289Z,60.08
2018-10-18T19:52:55.010Z,59.93
2018-10-18T19:55:27.749Z,59.18
2018-10-18T19:58:00.440Z,52.55
2018-10-18T20:00:35.251Z,54.25
2018-10-18T20:03:08.458Z,58.38
2018-10-18T20:05:41.556Z,62.35
2018-10-18T20:08:14.689Z,55.03
2018-10-18T20:10:48.749Z,63.98
2018-10-18T20:13:22.803Z,67.37
2018-10-18T20:15:55.964Z,59.13
2018-10-18T20:18:29.455Z,57.08
2018-10-18T20:21:02.555Z,60.30
2018-10-18T20:23:35.464Z,62.15
2018-10-18T20:26:08.833Z,73.55
2018-10-18T20:28:41.821Z,65.17
2018-10-18T20:31:15.770Z,70.62
2018-10-18T20:33:48.904Z,80.65
2018-10-18T20:36:22.030Z,65.37
2018-10-18T20:38:56.129Z,77.72
2018-10-18T20:41:31.858Z,67.95
2018-10-18T20:44:05.068Z,74.97
2018-10-18T20:46:37.891Z,76.00
2018-10-18T20:49:11.559Z,67.40
2018-10-18T20:51:45.405Z,72.65
2018-10-18T20:54:18.428Z,76.30
2018-10-18T20:56:51.279Z,78.15
2018-10-18T20:59:24.293Z,67.50
2018-10-18T21:01:58.660Z,69.62
2018-10-18T21:04:31.966Z,73.00
2018-10-18T21:07:08.038Z,73.85
2018-10-18T21:09:42.834Z,73.78
2018-10-18T21:12:14.352Z,83.82
2018-10-18T21:14:46.704Z,76.90
2018-10-18T21:17:19.379Z,73.62
2018-10-18T21:19:51.912Z,79.80
2018-10-18T21:22:32.670Z,78.60
2018-10-18T21:25:06.623Z,79.32
2018-10-18T21:27:38.991Z,77.37
2018-10-18T21:30:10.665Z,71.82
2018-10-18T21:32:43.631Z,85.57
2018-10-18T21:35:16.913Z,81.97
2018-10-18T21:40:26.516Z,79.10
2018-10-18T21:42:59.213Z,79.58
2018-10-18T21:45:33.549Z,78.12
2018-10-18T21:48:06.470Z,81.85
2018-10-18T21:50:40.084Z,85.90
2018-10-18T21:53:13.198Z,82.65
2018-10-18T21:55:47.170Z,76.90
2018-10-18T21:58:19.733Z,93.03
2018-10-18T22:00:53.904Z,78.60
2018-10-18T22:03:27.458Z,71.28
2018-10-18T22:06:01.470Z,75.55
2018-10-18T22:08:35.269Z,79.37
2018-10-18T22:11:09.348Z,82.88
2018-10-18T22:13:42.253Z,80.22
2018-10-18T22:16:15.291Z,86.57
2018-10-18T22:18:48.373Z,79.22
2018-10-18T22:21:21.434Z,78.40
2018-10-18T22:23:54.736Z,80.55
2018-10-18T22:26:28.103Z,86.28
2018-10-18T22:29:01.154Z,79.35
2018-10-18T22:31:34.526Z,85.42
2018-10-18T22:34:10.013Z,75.45
2018-10-18T22:36:45.089Z,98.05
2018-10-18T22:39:18.741Z,83.92
2018-10-18T22:41:52.490Z,78.65
2018-10-18T22:44:24.062Z,82.90
2018-10-18T22:46:56.408Z,73.35
2018-10-18T22:49:28.563Z,74.95
2018-10-18T22:52:01.066Z,74.10
2018-10-18T22:54:33.807Z,90.50
2018-10-18T22:57:04.318Z,76.97
2018-10-18T22:59:38.031Z,76.07
2018-10-18T23:02:10.950Z,83.42
2018-10-18T23:04:44.386Z,77.87
2018-10-18T23:07:17.471Z,96.10
2018-10-18T23:09:50.605Z,86.30
2018-10-18T23:12:23.480Z,87.60
2018-10-18T23:14:57.470Z,83.78
2018-10-18T23:17:30.141Z,80.32
2018-10-18T23:20:04.061Z,86.72
2018-10-18T23:22:37.857Z,86.50
2018-10-18T23:25:10.899Z,84.37
2018-10-18T23:27:44.040Z,88.37
2018-10-18T23:30:17.819Z,107.37
2018-10-18T23:32:51.077Z,93.55
2018-10-18T23:35:23.972Z,92.47
2018-10-18T23:38:00.309Z,84.97
2018-10-18T23:40:33.903Z,92.53
2018-10-18T23:43:07.719Z,89.72
2018-10-18T23:45:40.831Z,87.22
2018-10-18T23:48:15.013Z,87.00
2018-10-18T23:50:48.064Z,87.67
2018-10-18T23:53:20.921Z,90.53
2018-10-18T23:55:54.057Z,83.85
2018-10-18T23:58:28.463Z,87.72
